Terminal Aerodrome Forecast
Issued by NWS

Current Version | Previous Version | Text Only | Print | Product List | Glossary Off
Versions: 1 2 3 4 5 6 7 8 9 10 11 12 13 14 15 16

000
FTUS41 KRNK 131739
TAFLWB
TAF
KLWB 131739Z 1318/1418 19008KT P6SM SCT250
     FM140000 18005KT P6SM SCT250
     FM140800 17005KT P6SM SCT020 BKN120
     FM141600 19009KT P6SM SCT030 OVC060=

USA.gov is the U.S. government's official web portal to all federal, state and local government web resources and services.